sensor_id;sensor_type;location;lat;lon;timestamp;P1;durP1;ratioP1;P2;durP2;ratioP2
38609;SDS011;24367;51.640;9.566;2024-03-08T00:00:52;6.35;;;4.35;;
38609;SDS011;24367;51.640;9.566;2024-03-08T00:03:19;4.22;;;3.50;;
38609;SDS011;24367;51.640;9.566;2024-03-08T00:05:45;4.60;;;4.10;;
38609;SDS011;24367;51.640;9.566;2024-03-08T00:08:11;4.65;;;3.83;;
38609;SDS011;24367;51.640;9.566;2024-03-08T00:10:38;5.13;;;3.85;;
38609;SDS011;24367;51.640;9.566;2024-03-08T00:13:06;8.13;;;4.60;;
38609;SDS011;24367;51.640;9.566;2024-03-08T00:15:32;5.22;;;3.70;;
38609;SDS011;24367;51.640;9.566;2024-03-08T00:17:59;4.40;;;3.55;;
38609;SDS011;24367;51.640;9.566;2024-03-08T00:20:26;5.03;;;4.05;;
38609;SDS011;24367;51.640;9.566;2024-03-08T00:22:53;5.10;;;3.85;;
38609;SDS011;24367;51.640;9.566;2024-03-08T00:25:19;5.00;;;4.18;;
38609;SDS011;24367;51.640;9.566;2024-03-08T00:27:45;4.95;;;4.00;;
38609;SDS011;24367;51.640;9.566;2024-03-08T00:30:15;5.32;;;3.75;;
38609;SDS011;24367;51.640;9.566;2024-03-08T00:32:42;4.82;;;3.70;;
38609;SDS011;24367;51.640;9.566;2024-03-08T00:35:08;5.20;;;3.95;;
38609;SDS011;24367;51.640;9.566;2024-03-08T00:37:35;4.30;;;3.72;;
38609;SDS011;24367;51.640;9.566;2024-03-08T00:40:01;4.55;;;3.60;;
38609;SDS011;24367;51.640;9.566;2024-03-08T00:42:28;4.45;;;3.50;;
38609;SDS011;24367;51.640;9.566;2024-03-08T00:44:54;4.47;;;3.80;;
38609;SDS011;24367;51.640;9.566;2024-03-08T00:47:22;4.57;;;3.70;;
38609;SDS011;24367;51.640;9.566;2024-03-08T00:49:49;4.55;;;3.83;;
38609;SDS011;24367;51.640;9.566;2024-03-08T00:52:15;5.05;;;3.70;;
38609;SDS011;24367;51.640;9.566;2024-03-08T00:54:43;4.25;;;3.75;;
38609;SDS011;24367;51.640;9.566;2024-03-08T00:57:10;3.97;;;3.50;;
38609;SDS011;24367;51.640;9.566;2024-03-08T00:59:37;4.45;;;3.70;;
38609;SDS011;24367;51.640;9.566;2024-03-08T01:02:03;4.10;;;3.65;;
38609;SDS011;24367;51.640;9.566;2024-03-08T01:04:32;4.25;;;3.72;;
38609;SDS011;24367;51.640;9.566;2024-03-08T01:06:59;4.07;;;3.67;;
38609;SDS011;24367;51.640;9.566;2024-03-08T01:09:25;4.05;;;3.40;;
38609;SDS011;24367;51.640;9.566;2024-03-08T01:11:52;4.47;;;3.90;;
38609;SDS011;24367;51.640;9.566;2024-03-08T01:14:19;4.53;;;3.97;;
38609;SDS011;24367;51.640;9.566;2024-03-08T01:16:47;6.05;;;4.13;;
38609;SDS011;24367;51.640;9.566;2024-03-08T01:19:14;4.80;;;3.85;;
38609;SDS011;24367;51.640;9.566;2024-03-08T01:21:41;4.82;;;3.88;;
38609;SDS011;24367;51.640;9.566;2024-03-08T01:24:08;4.55;;;3.70;;
38609;SDS011;24367;51.640;9.566;2024-03-08T01:26:34;4.20;;;3.80;;
38609;SDS011;24367;51.640;9.566;2024-03-08T01:29:00;5.63;;;3.88;;
38609;SDS011;24367;51.640;9.566;2024-03-08T01:31:28;4.38;;;3.45;;
38609;SDS011;24367;51.640;9.566;2024-03-08T01:33:54;5.72;;;3.97;;
38609;SDS011;24367;51.640;9.566;2024-03-08T01:36:21;4.55;;;3.42;;
38609;SDS011;24367;51.640;9.566;2024-03-08T01:38:49;4.60;;;3.90;;
38609;SDS011;24367;51.640;9.566;2024-03-08T01:41:16;5.47;;;3.72;;
38609;SDS011;24367;51.640;9.566;2024-03-08T01:43:43;4.78;;;4.07;;
38609;SDS011;24367;51.640;9.566;2024-03-08T01:46:10;4.65;;;3.75;;
38609;SDS011;24367;51.640;9.566;2024-03-08T01:48:37;4.28;;;3.78;;
38609;SDS011;24367;51.640;9.566;2024-03-08T01:51:06;4.72;;;4.10;;
38609;SDS011;24367;51.640;9.566;2024-03-08T01:53:32;4.25;;;3.65;;
38609;SDS011;24367;51.640;9.566;2024-03-08T01:56:00;6.55;;;3.75;;
38609;SDS011;24367;51.640;9.566;2024-03-08T01:58:28;4.65;;;3.80;;
38609;SDS011;24367;51.640;9.566;2024-03-08T02:00:56;4.30;;;3.70;;
38609;SDS011;24367;51.640;9.566;2024-03-08T02:03:23;4.47;;;3.70;;
38609;SDS011;24367;51.640;9.566;2024-03-08T02:05:50;5.13;;;3.78;;
38609;SDS011;24367;51.640;9.566;2024-03-08T02:08:16;4.45;;;4.05;;
38609;SDS011;24367;51.640;9.566;2024-03-08T02:10:43;4.53;;;3.72;;
38609;SDS011;24367;51.640;9.566;2024-03-08T02:13:11;4.90;;;3.63;;
38609;SDS011;24367;51.640;9.566;2024-03-08T02:15:51;4.60;;;3.42;;
38609;SDS011;24367;51.640;9.566;2024-03-08T02:18:18;4.63;;;3.53;;
38609;SDS011;24367;51.640;9.566;2024-03-08T02:20:46;4.20;;;3.58;;
38609;SDS011;24367;51.640;9.566;2024-03-08T02:23:12;4.22;;;3.45;;
38609;SDS011;24367;51.640;9.566;2024-03-08T02:25:39;4.60;;;3.88;;
38609;SDS011;24367;51.640;9.566;2024-03-08T02:28:06;4.68;;;3.65;;
38609;SDS011;24367;51.640;9.566;2024-03-08T02:30:34;4.00;;;3.50;;
38609;SDS011;24367;51.640;9.566;2024-03-08T02:33:01;4.72;;;3.42;;
38609;SDS011;24367;51.640;9.566;2024-03-08T02:35:27;4.88;;;3.65;;
38609;SDS011;24367;51.640;9.566;2024-03-08T02:37:55;3.88;;;3.42;;
38609;SDS011;24367;51.640;9.566;2024-03-08T02:40:21;4.22;;;3.60;;
38609;SDS011;24367;51.640;9.566;2024-03-08T02:42:47;4.25;;;3.58;;
38609;SDS011;24367;51.640;9.566;2024-03-08T02:45:14;4.32;;;3.72;;
38609;SDS011;24367;51.640;9.566;2024-03-08T02:47:40;4.18;;;3.50;;
38609;SDS011;24367;51.640;9.566;2024-03-08T02:50:07;4.10;;;3.47;;
38609;SDS011;24367;51.640;9.566;2024-03-08T02:52:34;3.92;;;3.20;;
38609;SDS011;24367;51.640;9.566;2024-03-08T02:55:01;3.78;;;3.22;;
38609;SDS011;24367;51.640;9.566;2024-03-08T02:57:28;4.15;;;3.22;;
38609;SDS011;24367;51.640;9.566;2024-03-08T02:59:54;4.68;;;3.70;;
38609;SDS011;24367;51.640;9.566;2024-03-08T03:02:20;3.92;;;3.53;;
38609;SDS011;24367;51.640;9.566;2024-03-08T03:04:48;3.33;;;2.92;;
38609;SDS011;24367;51.640;9.566;2024-03-08T03:07:15;4.03;;;3.63;;
38609;SDS011;24367;51.640;9.566;2024-03-08T03:09:41;4.07;;;3.30;;
38609;SDS011;24367;51.640;9.566;2024-03-08T03:12:09;3.70;;;3.30;;
38609;SDS011;24367;51.640;9.566;2024-03-08T03:14:35;3.75;;;3.28;;
38609;SDS011;24367;51.640;9.566;2024-03-08T03:17:03;3.80;;;3.33;;
38609;SDS011;24367;51.640;9.566;2024-03-08T03:19:29;4.03;;;3.22;;
38609;SDS011;24367;51.640;9.566;2024-03-08T03:21:56;4.13;;;3.58;;
38609;SDS011;24367;51.640;9.566;2024-03-08T03:24:23;4.43;;;3.38;;
38609;SDS011;24367;51.640;9.566;2024-03-08T03:26:50;3.90;;;3.50;;
38609;SDS011;24367;51.640;9.566;2024-03-08T03:29:18;4.68;;;3.60;;
38609;SDS011;24367;51.640;9.566;2024-03-08T03:31:45;4.20;;;3.70;;
38609;SDS011;24367;51.640;9.566;2024-03-08T03:34:11;3.45;;;3.15;;
38609;SDS011;24367;51.640;9.566;2024-03-08T03:36:38;3.83;;;3.22;;
38609;SDS011;24367;51.640;9.566;2024-03-08T03:39:07;4.13;;;3.30;;
38609;SDS011;24367;51.640;9.566;2024-03-08T03:41:37;4.25;;;3.55;;
38609;SDS011;24367;51.640;9.566;2024-03-08T03:44:04;4.18;;;3.67;;
38609;SDS011;24367;51.640;9.566;2024-03-08T03:46:31;4.18;;;3.63;;
38609;SDS011;24367;51.640;9.566;2024-03-08T03:48:58;4.18;;;3.65;;
38609;SDS011;24367;51.640;9.566;2024-03-08T03:51:24;4.00;;;3.25;;
38609;SDS011;24367;51.640;9.566;2024-03-08T03:53:51;5.13;;;3.60;;
38609;SDS011;24367;51.640;9.566;2024-03-08T03:56:18;3.70;;;3.15;;
38609;SDS011;24367;51.640;9.566;2024-03-08T03:58:44;3.65;;;3.25;;
38609;SDS011;24367;51.640;9.566;2024-03-08T04:01:10;4.10;;;3.42;;
38609;SDS011;24367;51.640;9.566;2024-03-08T04:03:40;4.00;;;3.60;;
38609;SDS011;24367;51.640;9.566;2024-03-08T04:06:08;4.03;;;3.55;;
38609;SDS011;24367;51.640;9.566;2024-03-08T04:08:34;3.85;;;3.35;;
38609;SDS011;24367;51.640;9.566;2024-03-08T04:11:01;4.30;;;3.65;;
38609;SDS011;24367;51.640;9.566;2024-03-08T04:13:27;4.68;;;3.38;;
38609;SDS011;24367;51.640;9.566;2024-03-08T04:15:54;3.70;;;3.22;;
38609;SDS011;24367;51.640;9.566;2024-03-08T04:18:20;3.92;;;3.47;;
38609;SDS011;24367;51.640;9.566;2024-03-08T04:20:48;3.65;;;3.20;;
38609;SDS011;24367;51.640;9.566;2024-03-08T04:23:15;3.80;;;3.08;;
38609;SDS011;24367;51.640;9.566;2024-03-08T04:25:42;3.88;;;3.15;;
38609;SDS011;24367;51.640;9.566;2024-03-08T04:28:09;3.88;;;3.10;;
38609;SDS011;24367;51.640;9.566;2024-03-08T04:30:37;3.92;;;3.50;;
38609;SDS011;24367;51.640;9.566;2024-03-08T04:33:04;3.88;;;3.17;;
38609;SDS011;24367;51.640;9.566;2024-03-08T04:35:31;3.78;;;3.30;;
38609;SDS011;24367;51.640;9.566;2024-03-08T04:37:58;4.25;;;3.45;;
38609;SDS011;24367;51.640;9.566;2024-03-08T04:40:25;4.43;;;3.50;;
38609;SDS011;24367;51.640;9.566;2024-03-08T04:42:51;3.83;;;3.42;;
38609;SDS011;24367;51.640;9.566;2024-03-08T04:45:18;3.83;;;3.22;;
38609;SDS011;24367;51.640;9.566;2024-03-08T04:47:44;3.72;;;3.33;;
38609;SDS011;24367;51.640;9.566;2024-03-08T04:50:10;4.07;;;3.60;;
38609;SDS011;24367;51.640;9.566;2024-03-08T04:52:37;3.67;;;3.20;;
38609;SDS011;24367;51.640;9.566;2024-03-08T04:55:05;4.32;;;3.50;;
38609;SDS011;24367;51.640;9.566;2024-03-08T04:57:32;3.80;;;3.10;;
38609;SDS011;24367;51.640;9.566;2024-03-08T04:59:58;3.60;;;3.20;;
38609;SDS011;24367;51.640;9.566;2024-03-08T05:02:25;3.75;;;3.28;;
38609;SDS011;24367;51.640;9.566;2024-03-08T05:04:51;4.32;;;3.47;;
38609;SDS011;24367;51.640;9.566;2024-03-08T05:07:18;3.58;;;3.13;;
38609;SDS011;24367;51.640;9.566;2024-03-08T05:09:44;3.63;;;3.10;;
38609;SDS011;24367;51.640;9.566;2024-03-08T05:12:17;4.22;;;3.20;;
38609;SDS011;24367;51.640;9.566;2024-03-08T05:14:44;3.97;;;3.38;;
38609;SDS011;24367;51.640;9.566;2024-03-08T05:17:11;3.45;;;2.70;;
38609;SDS011;24367;51.640;9.566;2024-03-08T05:19:38;3.95;;;3.15;;
38609;SDS011;24367;51.640;9.566;2024-03-08T05:22:04;3.95;;;3.30;;
38609;SDS011;24367;51.640;9.566;2024-03-08T05:24:30;3.97;;;3.30;;
38609;SDS011;24367;51.640;9.566;2024-03-08T05:26:57;3.92;;;3.30;;
38609;SDS011;24367;51.640;9.566;2024-03-08T05:29:25;3.97;;;3.42;;
38609;SDS011;24367;51.640;9.566;2024-03-08T05:31:52;4.13;;;3.28;;
38609;SDS011;24367;51.640;9.566;2024-03-08T05:34:18;3.42;;;3.00;;
38609;SDS011;24367;51.640;9.566;2024-03-08T05:36:46;3.67;;;2.83;;
38609;SDS011;24367;51.640;9.566;2024-03-08T05:39:14;3.80;;;3.00;;
38609;SDS011;24367;51.640;9.566;2024-03-08T05:41:42;4.80;;;3.35;;
38609;SDS011;24367;51.640;9.566;2024-03-08T05:44:09;3.85;;;3.00;;
38609;SDS011;24367;51.640;9.566;2024-03-08T05:46:37;4.10;;;3.28;;
38609;SDS011;24367;51.640;9.566;2024-03-08T05:49:03;3.80;;;2.72;;
38609;SDS011;24367;51.640;9.566;2024-03-08T05:51:31;5.65;;;3.05;;
38609;SDS011;24367;51.640;9.566;2024-03-08T05:53:59;3.78;;;3.28;;
38609;SDS011;24367;51.640;9.566;2024-03-08T05:56:27;4.07;;;3.28;;
38609;SDS011;24367;51.640;9.566;2024-03-08T05:58:54;4.20;;;3.40;;
38609;SDS011;24367;51.640;9.566;2024-03-08T06:01:20;3.80;;;3.05;;
38609;SDS011;24367;51.640;9.566;2024-03-08T06:03:48;3.90;;;3.38;;
38609;SDS011;24367;51.640;9.566;2024-03-08T06:06:14;4.13;;;3.70;;
38609;SDS011;24367;51.640;9.566;2024-03-08T06:08:43;4.13;;;3.60;;
38609;SDS011;24367;51.640;9.566;2024-03-08T06:11:09;3.50;;;2.92;;
38609;SDS011;24367;51.640;9.566;2024-03-08T06:13:36;4.40;;;3.50;;
38609;SDS011;24367;51.640;9.566;2024-03-08T06:16:02;3.78;;;3.20;;
38609;SDS011;24367;51.640;9.566;2024-03-08T06:18:29;3.78;;;3.38;;
38609;SDS011;24367;51.640;9.566;2024-03-08T06:20:57;4.10;;;3.20;;
38609;SDS011;24367;51.640;9.566;2024-03-08T06:23:23;3.80;;;3.30;;
38609;SDS011;24367;51.640;9.566;2024-03-08T06:25:50;4.18;;;3.47;;
38609;SDS011;24367;51.640;9.566;2024-03-08T06:28:16;4.38;;;3.65;;
38609;SDS011;24367;51.640;9.566;2024-03-08T06:30:42;4.15;;;3.25;;
38609;SDS011;24367;51.640;9.566;2024-03-08T06:33:09;3.65;;;3.20;;
38609;SDS011;24367;51.640;9.566;2024-03-08T06:35:35;3.97;;;3.30;;
38609;SDS011;24367;51.640;9.566;2024-03-08T06:38:04;3.88;;;3.13;;
38609;SDS011;24367;51.640;9.566;2024-03-08T06:40:30;4.13;;;3.30;;
38609;SDS011;24367;51.640;9.566;2024-03-08T06:42:57;5.30;;;3.33;;
38609;SDS011;24367;51.640;9.566;2024-03-08T06:45:23;4.32;;;3.17;;
38609;SDS011;24367;51.640;9.566;2024-03-08T06:47:51;4.03;;;3.28;;
38609;SDS011;24367;51.640;9.566;2024-03-08T06:50:17;3.88;;;3.22;;
38609;SDS011;24367;51.640;9.566;2024-03-08T06:52:43;3.55;;;3.08;;
38609;SDS011;24367;51.640;9.566;2024-03-08T06:55:14;4.10;;;3.45;;
38609;SDS011;24367;51.640;9.566;2024-03-08T06:57:40;4.43;;;3.20;;
38609;SDS011;24367;51.640;9.566;2024-03-08T07:00:07;3.45;;;2.95;;
38609;SDS011;24367;51.640;9.566;2024-03-08T07:02:35;3.22;;;2.83;;
38609;SDS011;24367;51.640;9.566;2024-03-08T07:05:01;4.30;;;3.70;;
38609;SDS011;24367;51.640;9.566;2024-03-08T07:07:28;3.45;;;2.83;;
38609;SDS011;24367;51.640;9.566;2024-03-08T07:09:57;4.07;;;3.35;;
38609;SDS011;24367;51.640;9.566;2024-03-08T07:12:24;4.10;;;3.55;;
38609;SDS011;24367;51.640;9.566;2024-03-08T07:14:51;3.72;;;3.00;;
38609;SDS011;24367;51.640;9.566;2024-03-08T07:17:18;3.90;;;3.20;;
38609;SDS011;24367;51.640;9.566;2024-03-08T07:19:44;5.07;;;3.28;;
38609;SDS011;24367;51.640;9.566;2024-03-08T07:22:11;3.78;;;3.05;;
38609;SDS011;24367;51.640;9.566;2024-03-08T07:24:37;3.60;;;3.05;;
38609;SDS011;24367;51.640;9.566;2024-03-08T07:27:17;4.15;;;3.35;;
38609;SDS011;24367;51.640;9.566;2024-03-08T07:29:45;4.43;;;3.70;;
38609;SDS011;24367;51.640;9.566;2024-03-08T07:32:12;3.92;;;3.33;;
38609;SDS011;24367;51.640;9.566;2024-03-08T07:34:46;3.90;;;3.20;;
38609;SDS011;24367;51.640;9.566;2024-03-08T07:37:13;3.92;;;3.22;;
38609;SDS011;24367;51.640;9.566;2024-03-08T07:39:40;4.10;;;3.20;;
38609;SDS011;24367;51.640;9.566;2024-03-08T07:42:06;3.95;;;3.13;;
38609;SDS011;24367;51.640;9.566;2024-03-08T07:44:33;5.07;;;3.05;;
38609;SDS011;24367;51.640;9.566;2024-03-08T07:47:00;3.83;;;3.42;;
38609;SDS011;24367;51.640;9.566;2024-03-08T07:49:28;4.28;;;3.38;;
38609;SDS011;24367;51.640;9.566;2024-03-08T07:51:55;4.20;;;3.50;;
38609;SDS011;24367;51.640;9.566;2024-03-08T07:54:21;4.43;;;3.45;;
38609;SDS011;24367;51.640;9.566;2024-03-08T07:56:48;4.63;;;3.28;;
38609;SDS011;24367;51.640;9.566;2024-03-08T07:59:16;4.05;;;3.10;;
38609;SDS011;24367;51.640;9.566;2024-03-08T08:01:42;4.18;;;3.53;;
38609;SDS011;24367;51.640;9.566;2024-03-08T08:04:10;3.75;;;3.20;;
38609;SDS011;24367;51.640;9.566;2024-03-08T08:06:38;3.65;;;3.08;;
38609;SDS011;24367;51.640;9.566;2024-03-08T08:09:06;4.00;;;3.42;;
38609;SDS011;24367;51.640;9.566;2024-03-08T08:11:35;3.85;;;3.42;;
38609;SDS011;24367;51.640;9.566;2024-03-08T08:14:01;4.00;;;3.60;;
38609;SDS011;24367;51.640;9.566;2024-03-08T08:16:27;4.25;;;3.10;;
38609;SDS011;24367;51.640;9.566;2024-03-08T08:18:54;4.38;;;3.47;;
38609;SDS011;24367;51.640;9.566;2024-03-08T08:21:21;5.25;;;3.90;;
38609;SDS011;24367;51.640;9.566;2024-03-08T08:23:50;4.38;;;3.25;;
38609;SDS011;24367;51.640;9.566;2024-03-08T08:26:16;4.43;;;3.50;;
38609;SDS011;24367;51.640;9.566;2024-03-08T08:28:42;3.92;;;3.35;;
38609;SDS011;24367;51.640;9.566;2024-03-08T08:31:11;5.18;;;4.03;;
38609;SDS011;24367;51.640;9.566;2024-03-08T08:33:38;4.65;;;3.45;;
38609;SDS011;24367;51.640;9.566;2024-03-08T08:36:05;3.90;;;3.40;;
38609;SDS011;24367;51.640;9.566;2024-03-08T08:38:33;6.40;;;3.67;;
38609;SDS011;24367;51.640;9.566;2024-03-08T08:41:00;4.72;;;3.55;;
38609;SDS011;24367;51.640;9.566;2024-03-08T08:43:27;4.43;;;3.38;;
38609;SDS011;24367;51.640;9.566;2024-03-08T08:45:53;5.68;;;4.13;;
38609;SDS011;24367;51.640;9.566;2024-03-08T08:48:20;6.22;;;3.90;;
38609;SDS011;24367;51.640;9.566;2024-03-08T08:50:47;5.10;;;3.58;;
38609;SDS011;24367;51.640;9.566;2024-03-08T08:53:13;10.55;;;4.30;;
38609;SDS011;24367;51.640;9.566;2024-03-08T08:55:43;5.10;;;3.40;;
38609;SDS011;24367;51.640;9.566;2024-03-08T08:58:10;6.07;;;3.80;;
38609;SDS011;24367;51.640;9.566;2024-03-08T09:00:37;12.40;;;4.40;;
38609;SDS011;24367;51.640;9.566;2024-03-08T09:03:04;9.18;;;4.13;;
38609;SDS011;24367;51.640;9.566;2024-03-08T09:05:31;5.05;;;3.72;;
38609;SDS011;24367;51.640;9.566;2024-03-08T09:07:58;27.23;;;19.17;;
38609;SDS011;24367;51.640;9.566;2024-03-08T09:10:25;22.00;;;19.77;;
38609;SDS011;24367;51.640;9.566;2024-03-08T09:12:54;23.10;;;20.67;;
38609;SDS011;24367;51.640;9.566;2024-03-08T09:15:20;21.85;;;19.55;;
38609;SDS011;24367;51.640;9.566;2024-03-08T09:17:47;15.05;;;13.52;;
38609;SDS011;24367;51.640;9.566;2024-03-08T09:20:13;15.55;;;11.65;;
38609;SDS011;24367;51.640;9.566;2024-03-08T09:22:40;12.45;;;9.63;;
38609;SDS011;24367;51.640;9.566;2024-03-08T09:25:06;13.98;;;8.88;;
38609;SDS011;24367;51.640;9.566;2024-03-08T09:27:34;11.32;;;7.60;;
38609;SDS011;24367;51.640;9.566;2024-03-08T09:30:02;13.90;;;8.45;;
38609;SDS011;24367;51.640;9.566;2024-03-08T09:32:29;12.88;;;8.32;;
38609;SDS011;24367;51.640;9.566;2024-03-08T09:34:56;15.90;;;7.22;;
38609;SDS011;24367;51.640;9.566;2024-03-08T09:37:23;24.35;;;7.57;;
38609;SDS011;24367;51.640;9.566;2024-03-08T09:39:49;11.77;;;7.22;;
38609;SDS011;24367;51.640;9.566;2024-03-08T09:42:15;14.75;;;6.72;;
38609;SDS011;24367;51.640;9.566;2024-03-08T09:44:44;11.68;;;6.22;;
38609;SDS011;24367;51.640;9.566;2024-03-08T09:47:12;10.20;;;6.63;;
38609;SDS011;24367;51.640;9.566;2024-03-08T09:49:40;11.90;;;6.53;;
38609;SDS011;24367;51.640;9.566;2024-03-08T09:52:07;11.27;;;5.72;;
38609;SDS011;24367;51.640;9.566;2024-03-08T09:54:34;9.40;;;6.03;;
38609;SDS011;24367;51.640;9.566;2024-03-08T09:57:00;12.63;;;5.93;;
38609;SDS011;24367;51.640;9.566;2024-03-08T09:59:29;8.60;;;5.50;;
38609;SDS011;24367;51.640;9.566;2024-03-08T10:02:14;7.70;;;5.65;;
38609;SDS011;24367;51.640;9.566;2024-03-08T10:04:41;9.63;;;5.78;;
38609;SDS011;24367;51.640;9.566;2024-03-08T10:07:08;9.13;;;5.65;;
38609;SDS011;24367;51.640;9.566;2024-03-08T10:09:34;10.88;;;6.47;;
38609;SDS011;24367;51.640;9.566;2024-03-08T10:12:01;7.45;;;5.18;;
38609;SDS011;24367;51.640;9.566;2024-03-08T10:14:28;11.68;;;6.50;;
38609;SDS011;24367;51.640;9.566;2024-03-08T10:16:54;9.20;;;5.68;;
38609;SDS011;24367;51.640;9.566;2024-03-08T10:19:26;10.23;;;5.47;;
38609;SDS011;24367;51.640;9.566;2024-03-08T10:21:52;8.40;;;5.50;;
38609;SDS011;24367;51.640;9.566;2024-03-08T10:24:21;9.70;;;5.30;;
38609;SDS011;24367;51.640;9.566;2024-03-08T10:26:48;8.52;;;6.07;;
38609;SDS011;24367;51.640;9.566;2024-03-08T10:29:15;10.68;;;5.22;;
38609;SDS011;24367;51.640;9.566;2024-03-08T10:31:42;9.27;;;5.63;;
38609;SDS011;24367;51.640;9.566;2024-03-08T10:34:09;8.65;;;5.28;;
38609;SDS011;24367;51.640;9.566;2024-03-08T10:36:36;9.40;;;5.55;;
38609;SDS011;24367;51.640;9.566;2024-03-08T10:39:05;10.40;;;5.68;;
38609;SDS011;24367;51.640;9.566;2024-03-08T10:41:34;12.10;;;5.50;;
38609;SDS011;24367;51.640;9.566;2024-03-08T10:44:12;9.00;;;5.32;;
38609;SDS011;24367;51.640;9.566;2024-03-08T10:46:53;7.05;;;5.07;;
38609;SDS011;24367;51.640;9.566;2024-03-08T10:49:30;7.00;;;5.05;;
38609;SDS011;24367;51.640;9.566;2024-03-08T10:52:01;9.07;;;5.53;;
38609;SDS011;24367;51.640;9.566;2024-03-08T10:54:29;7.90;;;5.75;;
38609;SDS011;24367;51.640;9.566;2024-03-08T10:56:57;8.20;;;5.25;;
38609;SDS011;24367;51.640;9.566;2024-03-08T10:59:23;6.63;;;5.00;;
38609;SDS011;24367;51.640;9.566;2024-03-08T11:01:50;13.52;;;6.05;;
38609;SDS011;24367;51.640;9.566;2024-03-08T11:04:17;9.43;;;6.03;;
38609;SDS011;24367;51.640;9.566;2024-03-08T11:06:47;11.45;;;5.65;;
38609;SDS011;24367;51.640;9.566;2024-03-08T11:09:31;9.57;;;5.32;;
38609;SDS011;24367;51.640;9.566;2024-03-08T11:14:51;10.63;;;4.63;;
38609;SDS011;24367;51.640;9.566;2024-03-08T11:17:25;7.93;;;5.10;;
38609;SDS011;24367;51.640;9.566;2024-03-08T11:19:54;8.88;;;5.95;;
38609;SDS011;24367;51.640;9.566;2024-03-08T11:22:22;9.45;;;4.78;;
38609;SDS011;24367;51.640;9.566;2024-03-08T11:24:51;8.88;;;5.28;;
38609;SDS011;24367;51.640;9.566;2024-03-08T11:27:17;7.78;;;5.45;;
38609;SDS011;24367;51.640;9.566;2024-03-08T11:29:46;7.03;;;5.35;;
38609;SDS011;24367;51.640;9.566;2024-03-08T11:32:27;8.68;;;4.57;;
38609;SDS011;24367;51.640;9.566;2024-03-08T11:34:53;7.47;;;4.85;;
38609;SDS011;24367;51.640;9.566;2024-03-08T11:37:21;6.68;;;4.78;;
38609;SDS011;24367;51.640;9.566;2024-03-08T11:39:48;8.13;;;5.15;;
38609;SDS011;24367;51.640;9.566;2024-03-08T11:42:16;5.47;;;4.43;;
38609;SDS011;24367;51.640;9.566;2024-03-08T11:44:43;9.13;;;5.35;;
38609;SDS011;24367;51.640;9.566;2024-03-08T11:47:09;11.55;;;5.30;;
38609;SDS011;24367;51.640;9.566;2024-03-08T11:49:36;6.72;;;5.13;;
38609;SDS011;24367;51.640;9.566;2024-03-08T11:52:03;7.68;;;4.75;;
38609;SDS011;24367;51.640;9.566;2024-03-08T11:54:29;6.82;;;4.95;;
38609;SDS011;24367;51.640;9.566;2024-03-08T11:56:56;7.50;;;5.30;;
38609;SDS011;24367;51.640;9.566;2024-03-08T11:59:27;8.00;;;4.95;;
38609;SDS011;24367;51.640;9.566;2024-03-08T12:02:00;9.50;;;5.25;;
38609;SDS011;24367;51.640;9.566;2024-03-08T12:04:28;7.57;;;4.53;;
38609;SDS011;24367;51.640;9.566;2024-03-08T12:06:56;6.53;;;4.32;;
38609;SDS011;24367;51.640;9.566;2024-03-08T12:09:23;8.60;;;5.18;;
38609;SDS011;24367;51.640;9.566;2024-03-08T12:11:49;7.13;;;4.43;;
38609;SDS011;24367;51.640;9.566;2024-03-08T12:14:16;5.90;;;4.70;;
38609;SDS011;24367;51.640;9.566;2024-03-08T12:16:44;5.53;;;4.38;;
38609;SDS011;24367;51.640;9.566;2024-03-08T12:19:11;5.88;;;4.70;;
38609;SDS011;24367;51.640;9.566;2024-03-08T12:21:38;6.55;;;4.70;;
38609;SDS011;24367;51.640;9.566;2024-03-08T12:24:13;8.18;;;4.68;;
38609;SDS011;24367;51.640;9.566;2024-03-08T12:26:41;8.07;;;5.28;;
38609;SDS011;24367;51.640;9.566;2024-03-08T12:29:14;6.53;;;5.00;;
38609;SDS011;24367;51.640;9.566;2024-03-08T12:31:42;7.75;;;4.60;;
38609;SDS011;24367;51.640;9.566;2024-03-08T12:34:11;7.95;;;4.32;;
38609;SDS011;24367;51.640;9.566;2024-03-08T12:36:39;11.02;;;5.22;;
38609;SDS011;24367;51.640;9.566;2024-03-08T12:41:40;4.80;;;3.92;;
38609;SDS011;24367;51.640;9.566;2024-03-08T12:44:08;6.55;;;4.40;;
38609;SDS011;24367;51.640;9.566;2024-03-08T12:46:36;7.68;;;4.50;;
38609;SDS011;24367;51.640;9.566;2024-03-08T12:49:05;6.47;;;4.55;;
38609;SDS011;24367;51.640;9.566;2024-03-08T12:51:34;7.85;;;4.72;;
38609;SDS011;24367;51.640;9.566;2024-03-08T12:54:00;6.57;;;4.65;;
38609;SDS011;24367;51.640;9.566;2024-03-08T12:56:30;8.35;;;5.13;;
38609;SDS011;24367;51.640;9.566;2024-03-08T12:58:58;7.72;;;4.70;;
38609;SDS011;24367;51.640;9.566;2024-03-08T13:01:25;8.15;;;4.80;;
38609;SDS011;24367;51.640;9.566;2024-03-08T13:03:51;7.45;;;4.88;;
38609;SDS011;24367;51.640;9.566;2024-03-08T13:06:18;7.70;;;5.10;;
38609;SDS011;24367;51.640;9.566;2024-03-08T13:08:48;5.50;;;4.93;;
38609;SDS011;24367;51.640;9.566;2024-03-08T13:11:14;8.38;;;6.03;;
38609;SDS011;24367;51.640;9.566;2024-03-08T13:13:42;7.97;;;5.35;;
38609;SDS011;24367;51.640;9.566;2024-03-08T13:16:09;7.72;;;5.03;;
38609;SDS011;24367;51.640;9.566;2024-03-08T13:18:37;7.75;;;5.18;;
38609;SDS011;24367;51.640;9.566;2024-03-08T13:21:04;8.25;;;5.63;;
38609;SDS011;24367;51.640;9.566;2024-03-08T13:23:31;7.97;;;5.28;;
38609;SDS011;24367;51.640;9.566;2024-03-08T13:25:59;8.25;;;5.60;;
38609;SDS011;24367;51.640;9.566;2024-03-08T13:28:26;6.18;;;5.30;;
38609;SDS011;24367;51.640;9.566;2024-03-08T13:30:56;11.52;;;5.88;;
38609;SDS011;24367;51.640;9.566;2024-03-08T13:33:23;8.40;;;5.32;;
38609;SDS011;24367;51.640;9.566;2024-03-08T13:35:49;9.68;;;5.65;;
38609;SDS011;24367;51.640;9.566;2024-03-08T13:38:16;6.85;;;4.82;;
38609;SDS011;24367;51.640;9.566;2024-03-08T13:40:45;6.93;;;5.05;;
38609;SDS011;24367;51.640;9.566;2024-03-08T13:43:13;9.35;;;5.75;;
38609;SDS011;24367;51.640;9.566;2024-03-08T13:45:39;8.88;;;6.00;;
38609;SDS011;24367;51.640;9.566;2024-03-08T13:48:07;8.77;;;6.68;;
38609;SDS011;24367;51.640;9.566;2024-03-08T13:50:37;10.00;;;5.45;;
38609;SDS011;24367;51.640;9.566;2024-03-08T13:53:04;8.30;;;5.90;;
38609;SDS011;24367;51.640;9.566;2024-03-08T13:55:31;7.35;;;5.80;;
38609;SDS011;24367;51.640;9.566;2024-03-08T13:57:58;7.82;;;5.53;;
38609;SDS011;24367;51.640;9.566;2024-03-08T14:00:26;7.00;;;5.55;;
38609;SDS011;24367;51.640;9.566;2024-03-08T14:02:58;9.35;;;6.15;;
38609;SDS011;24367;51.640;9.566;2024-03-08T14:05:24;7.65;;;5.50;;
38609;SDS011;24367;51.640;9.566;2024-03-08T14:07:52;6.47;;;5.60;;
38609;SDS011;24367;51.640;9.566;2024-03-08T14:10:19;6.95;;;5.55;;
38609;SDS011;24367;51.640;9.566;2024-03-08T14:12:47;7.38;;;5.20;;
38609;SDS011;24367;51.640;9.566;2024-03-08T14:15:15;6.32;;;5.05;;
38609;SDS011;24367;51.640;9.566;2024-03-08T14:17:43;7.65;;;5.30;;
38609;SDS011;24367;51.640;9.566;2024-03-08T14:20:11;5.93;;;5.13;;
38609;SDS011;24367;51.640;9.566;2024-03-08T14:22:38;6.68;;;5.32;;
38609;SDS011;24367;51.640;9.566;2024-03-08T14:25:04;6.82;;;4.97;;
38609;SDS011;24367;51.640;9.566;2024-03-08T14:27:31;6.53;;;4.82;;
38609;SDS011;24367;51.640;9.566;2024-03-08T14:29:58;6.18;;;4.80;;
38609;SDS011;24367;51.640;9.566;2024-03-08T14:32:24;5.97;;;4.85;;
38609;SDS011;24367;51.640;9.566;2024-03-08T14:34:52;5.93;;;4.72;;
38609;SDS011;24367;51.640;9.566;2024-03-08T14:37:20;9.13;;;4.88;;
38609;SDS011;24367;51.640;9.566;2024-03-08T14:39:53;5.85;;;4.97;;
38609;SDS011;24367;51.640;9.566;2024-03-08T14:42:19;5.15;;;4.63;;
38609;SDS011;24367;51.640;9.566;2024-03-08T14:44:47;6.32;;;5.10;;
38609;SDS011;24367;51.640;9.566;2024-03-08T14:47:16;6.28;;;5.28;;
38609;SDS011;24367;51.640;9.566;2024-03-08T14:49:42;5.57;;;4.63;;
38609;SDS011;24367;51.640;9.566;2024-03-08T14:52:10;5.43;;;4.60;;